Mtm Rotterdam — VRIV7 — position and weather

sailwx.info

Track history (hours):
 
Tides and Currents Weather Stations Pressure Air Temp Water Temp Dewpoint Dewpoint Depression Visibility Wind Speed Wind Dir Waves Ship Positions

Mtm Rotterdam

Last reported at 2017-Sep-28 04:15 UTC. Time now 2017-Oct-23 02:41 UTC.
Position N 36°22' E 014°43'.
Warning: this ship's position is 24 days out of date.

Length 145 m; draft 10.4 m.

Type: Ship. MMSI: 477950600.

Date/timePositionNaut miles runAvg speedWind from/ knotsBaromVisibWave heightAir tempDewpointWater temp
2017-Sep-28 04:15N 36°22' E 014°43'415.3
2017-Sep-28 04:00N 36°23' E 014°38'815.4
2017-Sep-28 03:30N 36°24' E 014°29'815.4
2017-Sep-28 03:00N 36°27' E 014°20'815.1
2017-Sep-28 02:29N 36°29' E 014°10'1314.9
2017-Sep-28 01:37N 36°33' E 013°55'214.8
2017-Sep-28 01:30N 36°33' E 013°53'69614.2
2017-Sep-26 00:27N 36°33' W 000°33'614.2
2017-Sep-26 00:00N 36°32' W 000°41'714.4
2017-Sep-25 23:30N 36°30' W 000°50'914.6
2017-Sep-25 22:54N 36°28' W 001°00'714.7
2017-Sep-25 22:27N 36°26' W 001°08'714.8
2017-Sep-25 22:00N 36°24' W 001°16'19215.0
2017-Sep-25 09:14N 36°01' W 005°12'313.9
2017-Sep-25 09:01N 36°02' W 005°16'610.9
2017-Sep-25 08:28N 36°04' W 005°22'1 1.8
2017-Sep-25 08:00N 36°05' W 005°23'2 0.6
2017-Sep-25 03:57N 36°07' W 005°21'0 0.0
2017-Sep-25 03:15N 36°07' W 005°21'0 0.0
2017-Sep-25 03:00N 36°07' W 005°21'0 0.0
2017-Sep-25 02:24N 36°07' W 005°21'0 0.0
2017-Sep-25 02:00N 36°07' W 005°21'0 0.0
2017-Sep-25 01:24N 36°07' W 005°21'0 0.1
2017-Sep-25 01:00N 36°07' W 005°21'0 0.2
2017-Sep-25 00:30N 36°07' W 005°21'0 0.1
2017-Sep-24 23:57N 36°07' W 005°21'0 0.2
2017-Sep-24 23:30N 36°07' W 005°21'0 0.1
2017-Sep-24 22:54N 36°07' W 005°21'0 0.0
2017-Sep-24 22:30N 36°07' W 005°21'0 0.1
2017-Sep-24 20:00N 36°07' W 005°21'3 5.0
2017-Sep-24 19:26N 36°05' W 005°19'1 2.7
2017-Sep-24 19:00N 36°05' W 005°18'0 0.7
2017-Sep-24 18:25N 36°05' W 005°17'0 0.6
2017-Sep-24 18:00N 36°05' W 005°17'3 6.4
2017-Sep-24 17:31N 36°02' W 005°16'510.5
2017-Sep-24 17:01N 35°59' W 005°21'612.6
2017-Sep-24 16:30N 35°57' W 005°29'812.1
2017-Sep-24 15:51N 35°55' W 005°38'710.9
2017-Sep-24 15:13N 35°55' W 005°47'211.2
2017-Sep-24 15:01N 35°54' W 005°50'14013.1
2017-Sep-24 04:16N 34°19' W 007°56'2714.0
2017-Sep-24 02:20N 33°58' W 008°17'613.6
2017-Sep-24 01:53N 33°53' W 008°21'  
2017-Sep-18 19:08N 33°07' W 008°43'0 3.7
2017-Sep-18 19:00N 33°07' W 008°44'711.3
2017-Sep-18 18:24N 33°03' W 008°51'513.3
2017-Sep-18 18:00N 33°00' W 008°56'713.1
2017-Sep-18 17:29N 32°57' W 009°03'  
Track history (hours):
 
Tides and Currents Weather Stations Pressure Air Temp Water Temp Dewpoint Dewpoint Depression Visibility Wind Speed Wind Dir Waves Ship Positions

Mtm Rotterdam

Last reported at 2017-Sep-28 04:15 UTC. Time now 2017-Oct-23 02:41 UTC.
Position N 36°22' E 014°43'.
Warning: this ship's position is 24 days out of date.

Length 145 m; draft 10.4 m.

Type: Ship. MMSI: 477950600.

Date/timePositionNaut miles runAvg speedWind from/ knotsBaromVisibWave heightAir tempDewpointWater temp
2017-Sep-28 04:15N 36°22' E 014°43'415.3
2017-Sep-28 04:00N 36°23' E 014°38'815.4
2017-Sep-28 03:30N 36°24' E 014°29'815.4
2017-Sep-28 03:00N 36°27' E 014°20'815.1
2017-Sep-28 02:29N 36°29' E 014°10'1314.9
2017-Sep-28 01:37N 36°33' E 013°55'214.8
2017-Sep-28 01:30N 36°33' E 013°53'69614.2
2017-Sep-26 00:27N 36°33' W 000°33'614.2
2017-Sep-26 00:00N 36°32' W 000°41'714.4
2017-Sep-25 23:30N 36°30' W 000°50'914.6
2017-Sep-25 22:54N 36°28' W 001°00'714.7
2017-Sep-25 22:27N 36°26' W 001°08'714.8
2017-Sep-25 22:00N 36°24' W 001°16'19215.0
2017-Sep-25 09:14N 36°01' W 005°12'313.9
2017-Sep-25 09:01N 36°02' W 005°16'610.9
2017-Sep-25 08:28N 36°04' W 005°22'1 1.8
2017-Sep-25 08:00N 36°05' W 005°23'2 0.6
2017-Sep-25 03:57N 36°07' W 005°21'0 0.0
2017-Sep-25 03:15N 36°07' W 005°21'0 0.0
2017-Sep-25 03:00N 36°07' W 005°21'0 0.0
2017-Sep-25 02:24N 36°07' W 005°21'0 0.0
2017-Sep-25 02:00N 36°07' W 005°21'0 0.0
2017-Sep-25 01:24N 36°07' W 005°21'0 0.1
2017-Sep-25 01:00N 36°07' W 005°21'0 0.2
2017-Sep-25 00:30N 36°07' W 005°21'0 0.1
2017-Sep-24 23:57N 36°07' W 005°21'0 0.2
2017-Sep-24 23:30N 36°07' W 005°21'0 0.1
2017-Sep-24 22:54N 36°07' W 005°21'0 0.0
2017-Sep-24 22:30N 36°07' W 005°21'0 0.1
2017-Sep-24 20:00N 36°07' W 005°21'3 5.0
2017-Sep-24 19:26N 36°05' W 005°19'1 2.7
2017-Sep-24 19:00N 36°05' W 005°18'0 0.7
2017-Sep-24 18:25N 36°05' W 005°17'0 0.6
2017-Sep-24 18:00N 36°05' W 005°17'3 6.4
2017-Sep-24 17:31N 36°02' W 005°16'510.5
2017-Sep-24 17:01N 35°59' W 005°21'612.6
2017-Sep-24 16:30N 35°57' W 005°29'812.1
2017-Sep-24 15:51N 35°55' W 005°38'710.9
2017-Sep-24 15:13N 35°55' W 005°47'211.2
2017-Sep-24 15:01N 35°54' W 005°50'14013.1
2017-Sep-24 04:16N 34°19' W 007°56'2714.0
2017-Sep-24 02:20N 33°58' W 008°17'613.6
2017-Sep-24 01:53N 33°53' W 008°21'  
2017-Sep-18 19:08N 33°07' W 008°43'0 3.7
2017-Sep-18 19:00N 33°07' W 008°44'711.3
2017-Sep-18 18:24N 33°03' W 008°51'513.3
2017-Sep-18 18:00N 33°00' W 008°56'713.1
2017-Sep-18 17:29N 32°57' W 009°03'  

Dump ship's entire track history